Time;durP1;ratioP1;P1;durP2;ratioP2;P2;SDS_P1;SDS_P2;PMS_P1;PMS_P2;Temp;Humidity;BMP_temperature;BMP_pressure;BME280_temperature;BME280_humidity;BME280_pressure;Samples;Min_cycle;Max_cycle;Signal;HPM_P1;HPM_P2
2022/10/18 00:01:54;;;;;;;16.30;2.28;;;14.40;70.50;;;;;;5086212;28;20043;-61
2022/10/18 00:04:19;;;;;;;8.43;2.03;;;14.30;70.50;;;;;;5084949;28;20032;-61
2022/10/18 00:06:46;;;;;;;10.45;1.90;;;14.30;70.50;;;;;;5085662;28;20029;-59
2022/10/18 00:09:13;;;;;;;4.60;1.70;;;14.30;70.50;;;;;;5084120;28;20036;-59
2022/10/18 00:11:38;;;;;;;14.45;2.40;;;14.20;70.60;;;;;;5085676;28;21107;-60
2022/10/18 00:14:04;;;;;;;5.78;2.05;;;14.20;70.70;;;;;;5084646;28;20054;-60
2022/10/18 00:16:30;;;;;;;7.60;1.85;;;14.20;70.80;;;;;;5085475;28;20040;-59
2022/10/18 00:18:55;;;;;;;4.55;2.30;;;14.20;71.00;;;;;;5076904;28;20021;-60
2022/10/18 00:21:23;;;;;;;5.88;1.92;;;14.20;71.10;;;;;;5069485;28;20028;-59
2022/10/18 00:23:50;;;;;;;2.78;1.67;;;14.10;71.10;;;;;;5088184;28;20421;-60
2022/10/18 00:26:23;;;;;;;3.30;1.77;;;14.10;71.20;;;;;;5071882;28;20056;-59
2022/10/18 00:28:59;;;;;;;10.20;2.10;;;14.10;71.20;;;;;;5085123;28;20442;-60
2022/10/18 00:31:26;;;;;;;10.80;2.03;;;14.10;71.30;;;;;;5109812;28;20035;-60
2022/10/18 00:33:54;;;;;;;5.70;1.88;;;14.10;71.00;;;;;;5089016;28;20040;-59
2022/10/18 00:36:20;;;;;;;7.80;1.80;;;14.10;71.10;;;;;;5089257;28;20067;-60
2022/10/18 00:38:47;;;;;;;5.40;1.88;;;14.00;71.00;;;;;;5088056;28;20024;-61
2022/10/18 00:41:15;;;;;;;8.68;1.80;;;14.00;71.10;;;;;;5089214;28;20028;-59
2022/10/18 00:43:59;;;;;;;24.73;2.00;;;14.00;71.20;;;;;;5087992;28;20017;-60
2022/10/18 00:46:28;;;;;;;10.52;2.38;;;14.00;71.90;;;;;;5089147;28;20084;-60
2022/10/18 00:48:58;;;;;;;4.32;2.05;;;14.00;71.30;;;;;;5088108;28;20028;-61
2022/10/18 00:51:29;;;;;;;5.75;1.85;;;13.90;71.20;;;;;;5089087;28;20024;-60
2022/10/18 00:53:55;;;;;;;12.77;2.00;;;14.00;71.30;;;;;;5070221;28;20098;-60
2022/10/18 00:56:21;;;;;;;6.07;1.92;;;13.90;71.10;;;;;;5088965;28;20033;-60
2022/10/18 00:58:48;;;;;;;9.13;1.98;;;13.90;71.30;;;;;;5087985;28;20040;-61
2022/10/18 01:01:14;;;;;;;3.28;1.80;;;13.90;71.40;;;;;;5088653;28;20391;-60
2022/10/18 01:03:40;;;;;;;7.85;2.35;;;13.80;71.30;;;;;;5087839;28;20033;-60
2022/10/18 01:06:07;;;;;;;2.97;1.70;;;13.90;71.60;;;;;;5088543;28;20029;-60
2022/10/18 01:08:45;;;;;;;10.15;2.10;;;13.90;71.70;;;;;;5087766;28;20535;-59
2022/10/18 01:11:13;;;;;;;7.45;2.08;;;13.90;72.00;;;;;;5089032;28;20044;-60
2022/10/18 01:14:10;;;;;;;4.45;1.70;;;13.90;71.60;;;;;;5088078;28;20109;-60
2022/10/18 01:16:42;;;;;;;6.97;1.80;;;13.80;71.90;;;;;;5078197;28;20036;-60
2022/10/18 01:19:28;;;;;;;12.73;2.00;;;13.80;71.40;;;;;;5093777;28;20020;-60
2022/10/18 01:21:59;;;;;;;4.88;2.03;;;13.80;71.70;;;;;;5098301;28;20036;-60
2022/10/18 01:24:44;;;;;;;4.60;2.25;;;13.80;72.10;;;;;;5087093;28;20085;-60
2022/10/18 01:27:29;;;;;;;3.53;2.00;;;13.80;71.70;;;;;;5069605;28;20064;-60
2022/10/18 01:30:03;;;;;;;8.00;2.22;;;13.70;71.80;;;;;;5081776;28;20036;-59
2022/10/18 01:32:43;;;;;;;9.45;2.10;;;13.70;72.30;;;;;;5055754;28;20049;-60
2022/10/18 01:35:17;;;;;;;9.38;2.08;;;13.80;72.70;;;;;;5067448;28;20032;-60
2022/10/18 01:37:44;;;;;;;;;;;13.70;72.20;;;;;;5068608;28;20075;-62
2022/10/18 01:40:13;;;;;;;21.67;2.28;;;13.80;72.40;;;;;;5102688;28;19908;-60
2022/10/18 01:42:39;;;;;;;6.55;2.05;;;13.70;71.50;;;;;;5088456;28;20020;-61
2022/10/18 01:45:07;;;;;;;5.07;1.92;;;13.70;71.60;;;;;;5086525;28;20048;-60
2022/10/18 01:47:34;;;;;;;4.88;1.85;;;13.80;71.70;;;;;;5087793;28;20108;-60
2022/10/18 01:50:04;;;;;;;5.47;2.60;;;13.70;71.70;;;;;;5083132;28;20052;-59
2022/10/18 01:52:30;;;;;;;4.97;1.98;;;13.70;71.80;;;;;;5100849;28;20116;-61
2022/10/18 01:54:57;;;;;;;5.22;1.75;;;13.70;71.80;;;;;;5073138;28;20028;-61
2022/10/18 01:57:44;;;;;;;3.33;1.95;;;13.60;71.90;;;;;;5087278;28;20038;-61
2022/10/18 02:00:22;;;;;;;4.93;1.80;;;13.70;72.60;;;;;;5082484;28;20060;-59
2022/10/18 02:03:12;;;;;;;6.13;2.45;;;13.70;72.20;;;;;;5067781;28;20033;-59
2022/10/18 02:05:49;;;;;;;6.15;2.28;;;13.70;72.60;;;;;;5104828;28;20032;-59
2022/10/18 02:08:45;;;;;;;4.68;2.00;;;13.60;72.30;;;;;;5067611;28;20040;-61
2022/10/18 02:11:14;;;;;;;4.13;1.83;;;13.70;72.70;;;;;;5067576;28;20052;-61
2022/10/18 02:14:01;;;;;;;5.18;1.83;;;13.70;72.40;;;;;;5086417;28;20029;-60
2022/10/18 02:16:43;;;;;;;5.13;2.00;;;13.70;73.10;;;;;;5067272;28;20040;-61
2022/10/18 02:19:40;;;;;;;7.45;2.20;;;13.70;72.80;;;;;;5051405;28;20055;-60
2022/10/18 02:22:09;;;;;;;14.63;1.90;;;13.70;73.50;;;;;;5051425;28;20040;-60
2022/10/18 02:24:41;;;;;;;7.75;1.90;;;13.70;72.70;;;;;;5086035;28;20028;-61
2022/10/18 02:27:08;;;;;;;5.38;2.00;;;13.70;72.80;;;;;;5067374;28;20025;-59
2022/10/18 02:29:34;;;;;;;1.88;1.70;;;13.70;72.80;;;;;;5085574;28;20093;-59
2022/10/18 02:32:18;;;;;;;10.05;2.00;;;13.70;72.90;;;;;;5087085;28;20046;-60
2022/10/18 02:34:51;;;;;;;7.25;1.80;;;13.70;73.50;;;;;;5080135;28;20071;-59
2022/10/18 02:37:17;;;;;;;4.53;1.73;;;13.80;73.10;;;;;;5086895;28;20045;-59
2022/10/18 02:39:46;;;;;;;5.55;1.88;;;13.80;73.00;;;;;;5085892;28;20039;-60
2022/10/18 02:42:13;;;;;;;6.75;1.58;;;13.80;73.20;;;;;;5086489;28;20094;-59
2022/10/18 02:44:39;;;;;;;1.80;1.67;;;13.80;73.10;;;;;;5085238;28;20021;-59
2022/10/18 02:47:06;;;;;;;3.55;1.85;;;13.80;73.10;;;;;;5086707;28;20093;-61
2022/10/18 02:49:32;;;;;;;4.60;1.70;;;13.80;73.30;;;;;;5085542;28;20050;-61
2022/10/18 02:51:57;;;;;;;4.40;2.00;;;13.80;73.30;;;;;;5086375;28;20133;-59
2022/10/18 02:54:23;;;;;;;6.25;2.00;;;13.90;73.40;;;;;;5085541;28;20029;-60
2022/10/18 02:56:50;;;;;;;6.22;2.20;;;13.90;73.40;;;;;;5086517;28;20041;-59
2022/10/18 02:59:16;;;;;;;2.45;2.08;;;13.90;73.50;;;;;;5085587;28;20032;-60
2022/10/18 03:01:43;;;;;;;4.22;1.98;;;13.90;73.40;;;;;;5068705;28;20055;-60
2022/10/18 03:04:09;;;;;;;6.28;2.20;;;13.90;73.40;;;;;;5085047;28;20075;-59
2022/10/18 03:06:35;;;;;;;2.92;1.85;;;13.90;73.40;;;;;;5086434;28;20020;-61
2022/10/18 03:09:03;;;;;;;4.97;2.30;;;13.90;74.10;;;;;;5085423;28;20072;-61
2022/10/18 03:11:29;;;;;;;13.65;2.03;;;14.00;73.40;;;;;;5083905;28;20025;-60
2022/10/18 03:13:54;;;;;;;8.52;2.63;;;14.00;73.50;;;;;;5084981;28;20166;-61
2022/10/18 03:16:20;;;;;;;7.38;1.92;;;14.00;73.60;;;;;;5086213;28;20047;-60
2022/10/18 03:18:46;;;;;;;4.20;1.80;;;14.00;73.70;;;;;;5084921;28;20433;-61
2022/10/18 03:21:12;;;;;;;6.13;2.10;;;14.00;73.80;;;;;;5068306;28;20100;-61
2022/10/18 03:23:38;;;;;;;9.20;2.13;;;14.00;73.80;;;;;;5066950;28;20098;-59
2022/10/18 03:26:06;;;;;;;8.57;1.90;;;14.10;73.90;;;;;;5086132;28;20016;-60
2022/10/18 03:28:31;;;;;;;7.03;1.73;;;14.10;73.90;;;;;;5068018;28;20031;-60
2022/10/18 03:31:01;;;;;;;9.68;1.90;;;14.10;73.90;;;;;;5066287;28;20045;-61
2022/10/18 03:33:28;;;;;;;8.98;2.10;;;14.10;74.00;;;;;;5085484;28;20050;-61
2022/10/18 03:35:55;;;;;;;7.75;1.92;;;14.10;73.80;;;;;;5066314;28;20040;-60
2022/10/18 03:38:21;;;;;;;5.88;2.10;;;14.10;73.80;;;;;;5085507;28;20038;-59
2022/10/18 03:40:47;;;;;;;10.35;2.10;;;14.10;73.80;;;;;;5068222;28;20039;-59
2022/10/18 03:43:12;;;;;;;7.03;2.10;;;14.10;73.80;;;;;;5085169;28;20025;-60
2022/10/18 03:45:39;;;;;;;5.22;2.05;;;14.20;73.80;;;;;;5084895;28;20051;-61
2022/10/18 03:48:05;;;;;;;3.15;2.00;;;14.20;73.90;;;;;;5085822;28;20029;-60
2022/10/18 03:50:31;;;;;;;5.95;2.00;;;14.20;73.80;;;;;;5069887;28;20039;-60
2022/10/18 03:52:57;;;;;;;8.57;2.10;;;14.20;73.80;;;;;;5076338;28;20080;-60
2022/10/18 03:55:23;;;;;;;5.35;1.83;;;14.20;73.90;;;;;;5070284;28;20051;-60
2022/10/18 03:57:48;;;;;;;4.20;2.03;;;14.20;73.90;;;;;;5085027;28;20033;-61
2022/10/18 04:00:14;;;;;;;3.47;2.15;;;14.20;73.80;;;;;;5084785;28;20028;-59
2022/10/18 04:02:40;;;;;;;4.15;1.98;;;14.40;74.00;;;;;;5085531;28;20043;-59
2022/10/18 04:05:06;;;;;;;6.13;1.95;;;14.30;73.90;;;;;;5084771;28;20035;-60
2022/10/18 04:07:32;;;;;;;3.40;2.05;;;14.30;74.00;;;;;;5085691;28;20017;-60
2022/10/18 04:09:58;;;;;;;9.63;2.70;;;14.30;74.00;;;;;;5084553;28;20029;-60
2022/10/18 04:12:24;;;;;;;13.43;2.40;;;14.30;74.00;;;;;;5085552;28;20059;-60
2022/10/18 04:14:50;;;;;;;5.97;1.90;;;14.30;74.10;;;;;;5093138;28;20048;-61
2022/10/18 04:17:15;;;;;;;6.93;2.10;;;14.30;74.10;;;;;;5085857;28;20649;-61
2022/10/18 04:19:41;;;;;;;5.40;2.20;;;14.30;74.00;;;;;;5066799;28;20447;-60
2022/10/18 04:22:07;;;;;;;5.60;1.98;;;14.30;74.00;;;;;;5085454;28;20033;-61
2022/10/18 04:24:33;;;;;;;6.28;2.45;;;14.30;74.00;;;;;;5084638;28;20021;-60
2022/10/18 04:26:59;;;;;;;3.65;1.95;;;14.30;74.00;;;;;;5085432;28;20031;-59
2022/10/18 04:29:24;;;;;;;4.57;2.10;;;14.30;74.00;;;;;;5084121;28;20161;-60
2022/10/18 04:31:50;;;;;;;9.82;1.95;;;14.30;74.00;;;;;;5085555;28;20048;-60
2022/10/18 04:34:16;;;;;;;7.22;2.30;;;14.30;74.00;;;;;;5084478;28;20084;-59
2022/10/18 04:36:41;;;;;;;6.40;2.17;;;14.30;74.70;;;;;;5088576;28;20040;-61
2022/10/18 04:39:07;;;;;;;6.85;1.90;;;14.30;74.00;;;;;;5076743;28;20042;-59
2022/10/18 04:41:33;;;;;;;19.75;2.15;;;14.30;74.10;;;;;;5067532;28;20012;-59
2022/10/18 04:43:59;;;;;;;2.28;2.00;;;14.30;74.10;;;;;;5084177;28;20044;-61
2022/10/18 04:46:24;;;;;;;8.23;2.03;;;14.30;74.20;;;;;;5085114;28;20021;-60
2022/10/18 04:48:50;;;;;;;5.07;2.22;;;14.30;74.30;;;;;;5084373;28;20021;-59
2022/10/18 04:51:16;;;;;;;8.63;2.25;;;14.30;74.30;;;;;;5084664;28;20025;-60
2022/10/18 04:53:41;;;;;;;5.03;2.15;;;14.30;74.30;;;;;;5085069;28;20677;-59
2022/10/18 04:56:07;;;;;;;6.38;2.47;;;14.30;74.30;;;;;;5065755;28;20032;-62
2022/10/18 04:58:33;;;;;;;7.43;2.25;;;14.30;74.40;;;;;;5084368;28;20033;-61
2022/10/18 05:00:59;;;;;;;6.70;2.17;;;14.40;74.50;;;;;;5083711;28;20113;-60
2022/10/18 05:03:24;;;;;;;5.07;2.20;;;14.30;74.50;;;;;;5084959;28;20024;-61
2022/10/18 05:05:50;;;;;;;4.05;1.85;;;14.40;74.50;;;;;;5068396;28;20036;-60
2022/10/18 05:08:16;;;;;;;7.40;2.60;;;14.40;74.50;;;;;;5069832;28;20096;-59
2022/10/18 05:10:42;;;;;;;8.60;2.63;;;14.40;74.40;;;;;;5073316;28;20048;-60
2022/10/18 05:13:07;;;;;;;7.13;2.30;;;14.40;74.40;;;;;;5069700;28;20075;-61
2022/10/18 05:15:33;;;;;;;6.68;2.70;;;14.40;74.50;;;;;;5074581;28;20029;-61
2022/10/18 05:17:58;;;;;;;12.18;2.97;;;14.40;74.40;;;;;;5087779;28;20041;-59
2022/10/18 05:20:24;;;;;;;7.50;3.13;;;14.40;74.40;;;;;;5087508;28;20049;-62
2022/10/18 05:22:50;;;;;;;8.20;3.17;;;14.40;74.30;;;;;;5070447;28;20074;-61
2022/10/18 05:25:15;;;;;;;9.13;2.97;;;14.40;74.40;;;;;;5087353;28;20036;-61
2022/10/18 05:27:41;;;;;;;3.97;2.53;;;14.50;74.50;;;;;;5087894;28;20031;-61
2022/10/18 05:30:07;;;;;;;10.57;2.40;;;14.50;74.50;;;;;;5068878;28;20035;-61
2022/10/18 05:32:33;;;;;;;6.03;2.30;;;14.50;74.40;;;;;;5088148;28;20029;-61
2022/10/18 05:34:59;;;;;;;6.95;2.28;;;14.50;74.40;;;;;;5095070;28;20028;-60
2022/10/18 05:37:24;;;;;;;5.57;2.60;;;14.50;74.50;;;;;;5088584;28;20051;-61
2022/10/18 05:39:50;;;;;;;9.18;2.40;;;14.50;74.50;;;;;;5087105;28;20506;-60
2022/10/18 05:42:16;;;;;;;8.32;2.70;;;14.50;74.50;;;;;;5087735;28;20078;-59
2022/10/18 05:44:42;;;;;;;8.43;3.22;;;14.50;74.60;;;;;;5086893;28;20040;-60
2022/10/18 05:47:07;;;;;;;10.68;2.60;;;14.50;74.60;;;;;;5087927;28;20033;-60
2022/10/18 05:49:33;;;;;;;12.63;3.05;;;14.60;74.60;;;;;;5082557;28;20033;-60
2022/10/18 05:51:59;;;;;;;11.68;3.25;;;14.60;74.60;;;;;;5070196;28;20049;-61
2022/10/18 05:54:24;;;;;;;7.72;2.72;;;14.60;74.60;;;;;;5087219;28;20020;-60
2022/10/18 05:56:50;;;;;;;5.80;2.72;;;14.60;74.60;;;;;;5087414;28;20068;-60
2022/10/18 05:59:15;;;;;;;12.57;2.88;;;14.60;74.60;;;;;;5086872;28;20033;-59
2022/10/18 06:01:42;;;;;;;7.53;2.88;;;14.60;74.60;;;;;;5087867;28;20075;-60
2022/10/18 06:04:09;;;;;;;11.60;2.92;;;14.60;74.60;;;;;;5087438;28;20494;-59
2022/10/18 06:06:36;;;;;;;9.27;3.70;;;14.60;74.60;;;;;;5087941;28;20487;-60
2022/10/18 06:09:03;;;;;;;11.40;3.78;;;14.60;74.60;;;;;;5069367;28;20028;-60
2022/10/18 06:11:30;;;;;;;8.90;3.55;;;14.50;74.50;;;;;;5086644;28;20020;-60
2022/10/18 06:13:56;;;;;;;9.38;3.70;;;14.70;74.80;;;;;;5086893;28;20032;-59
2022/10/18 06:16:23;;;;;;;5.85;3.15;;;14.70;74.80;;;;;;5076731;28;20032;-61
2022/10/18 06:18:51;;;;;;;8.32;3.67;;;14.70;74.80;;;;;;5086833;28;20044;-61
2022/10/18 06:21:17;;;;;;;8.57;3.22;;;14.70;74.80;;;;;;5068996;28;20392;-60
2022/10/18 06:23:47;;;;;;;11.88;3.60;;;14.70;74.80;;;;;;5086660;28;20353;-60
2022/10/18 06:26:12;;;;;;;7.53;3.55;;;14.80;74.80;;;;;;5086290;28;20499;-60
2022/10/18 06:28:38;;;;;;;11.45;4.07;;;14.80;74.80;;;;;;5087116;28;20059;-60
2022/10/18 06:31:05;;;;;;;7.88;3.97;;;14.80;74.80;;;;;;5086210;28;20062;-61
2022/10/18 06:33:32;;;;;;;12.40;4.15;;;14.80;74.80;;;;;;5087087;28;20024;-61
2022/10/18 06:36:18;;;;;;;10.13;4.18;;;14.90;74.90;;;;;;5053533;28;20051;-62
2022/10/18 06:38:44;;;;;;;11.52;3.55;;;14.90;75.40;;;;;;5067027;28;20044;-61
2022/10/18 06:41:10;;;;;;;9.85;4.13;;;14.90;74.80;;;;;;5085222;28;20032;-62
2022/10/18 06:43:35;;;;;;;11.90;3.63;;;14.90;74.80;;;;;;5086701;28;20024;-61
2022/10/18 06:46:05;;;;;;;10.32;3.85;;;15.00;75.00;;;;;;5071334;28;20021;-60
2022/10/18 06:48:32;;;;;;;16.20;3.75;;;15.00;75.10;;;;;;5086060;28;20024;-60
2022/10/18 06:51:03;;;;;;;6.20;3.75;;;15.00;75.10;;;;;;5085919;28;20099;-60
2022/10/18 06:53:37;;;;;;;11.68;3.30;;;15.10;75.10;;;;;;5086295;28;20079;-62
2022/10/18 06:56:05;;;;;;;11.05;3.22;;;15.10;75.10;;;;;;5080121;28;20024;-61
2022/10/18 06:58:32;;;;;;;6.57;3.30;;;15.20;74.80;;;;;;5086522;28;20032;-61
2022/10/18 07:01:03;;;;;;;13.85;3.63;;;15.20;74.60;;;;;;5085549;28;20028;-61
2022/10/18 07:03:29;;;;;;;6.50;3.63;;;15.20;74.50;;;;;;5066685;28;20066;-59
2022/10/18 07:06:00;;;;;;;8.93;3.30;;;15.30;74.50;;;;;;5097918;28;20471;-60
2022/10/18 07:08:25;;;;;;;5.22;3.20;;;15.30;74.50;;;;;;5066253;28;20071;-61
2022/10/18 07:10:52;;;;;;;9.50;3.47;;;15.30;74.30;;;;;;5084817;28;20020;-61
2022/10/18 07:13:18;;;;;;;10.98;3.20;;;15.30;74.30;;;;;;5086225;28;20028;-60
2022/10/18 07:15:44;;;;;;;8.30;3.03;;;15.30;74.20;;;;;;5085296;28;20055;-61
2022/10/18 07:18:09;;;;;;;12.48;3.13;;;15.30;74.10;;;;;;5086255;28;20033;-61
2022/10/18 07:20:35;;;;;;;7.40;3.28;;;15.30;74.10;;;;;;5085014;28;20060;-59
2022/10/18 07:23:01;;;;;;;5.85;3.22;;;15.30;74.20;;;;;;5085880;28;20028;-63
2022/10/18 07:25:26;;;;;;;9.23;3.00;;;15.40;74.50;;;;;;5085189;28;20487;-60
2022/10/18 07:27:52;;;;;;;13.73;3.80;;;15.40;74.60;;;;;;5085806;28;20491;-59
2022/10/18 07:30:18;;;;;;;13.38;3.47;;;15.50;74.80;;;;;;5084653;28;20076;-61
2022/10/18 07:32:44;;;;;;;9.02;3.10;;;15.60;74.80;;;;;;5086146;28;20029;-61
2022/10/18 07:35:10;;;;;;;17.30;3.97;;;15.70;74.80;;;;;;5090969;28;20097;-60
2022/10/18 07:37:35;;;;;;;9.98;4.07;;;15.80;74.90;;;;;;5086415;28;20112;-62
2022/10/18 07:40:01;;;;;;;10.55;3.50;;;15.90;74.90;;;;;;5084878;28;20028;-61
2022/10/18 07:42:27;;;;;;;10.07;3.50;;;16.00;74.70;;;;;;5085865;28;20444;-60
2022/10/18 07:44:52;;;;;;;6.00;3.17;;;16.20;74.50;;;;;;5084755;28;20021;-60
2022/10/18 07:47:18;;;;;;;8.45;3.50;;;16.30;74.30;;;;;;5085927;28;20071;-62
2022/10/18 07:49:44;;;;;;;9.40;3.38;;;16.40;74.10;;;;;;5084418;28;20100;-61
2022/10/18 07:52:10;;;;;;;14.43;3.30;;;16.50;74.00;;;;;;5085323;28;20060;-59
2022/10/18 07:54:36;;;;;;;19.30;3.70;;;16.60;73.90;;;;;;5084274;28;20036;-62
2022/10/18 07:57:03;;;;;;;10.25;3.22;;;16.80;73.90;;;;;;5084940;28;20040;-61
2022/10/18 07:59:29;;;;;;;10.98;3.72;;;16.90;73.70;;;;;;5085560;28;20072;-62
2022/10/18 08:01:54;;;;;;;10.45;3.38;;;17.00;74.30;;;;;;5084763;28;20102;-61
2022/10/18 08:04:20;;;;;;;4.60;3.13;;;17.20;73.40;;;;;;5085531;28;20119;-60
2022/10/18 08:06:46;;;;;;;5.30;3.45;;;17.30;73.20;;;;;;5103070;28;20089;-59
2022/10/18 08:09:12;;;;;;;7.72;3.58;;;17.40;72.90;;;;;;5086324;28;20031;-62
2022/10/18 08:11:37;;;;;;;9.00;3.47;;;17.60;72.70;;;;;;5066387;28;20111;-60
2022/10/18 08:14:03;;;;;;;6.55;3.58;;;17.70;72.60;;;;;;5085653;28;20111;-59
2022/10/18 08:16:30;;;;;;;14.32;4.28;;;17.90;72.40;;;;;;5068755;28;20041;-60
2022/10/18 08:18:58;;;;;;;9.60;3.38;;;18.00;72.10;;;;;;5084819;28;20031;-61
2022/10/18 08:21:25;;;;;;;6.88;2.90;;;18.10;71.90;;;;;;5084470;28;20036;-60
2022/10/18 08:23:52;;;;;;;13.93;3.25;;;18.30;71.80;;;;;;5067199;28;20067;-61
2022/10/18 08:26:21;;;;;;;4.90;3.20;;;18.30;71.60;;;;;;5084384;28;20025;-59
2022/10/18 08:28:47;;;;;;;8.30;3.10;;;18.50;71.50;;;;;;5085618;28;20036;-61
2022/10/18 08:31:16;;;;;;;12.57;3.40;;;18.60;71.40;;;;;;5084245;28;20062;-62
2022/10/18 08:33:42;;;;;;;8.95;3.60;;;18.70;71.20;;;;;;5085171;28;20052;-60
2022/10/18 08:36:11;;;;;;;5.20;3.28;;;18.80;71.00;;;;;;5084342;28;20032;-61
2022/10/18 08:38:39;;;;;;;5.05;2.47;;;18.90;70.80;;;;;;5085149;28;20104;-61
2022/10/18 08:41:35;;;;;;;9.32;3.13;;;19.10;70.90;;;;;;5072679;28;20021;-61
2022/10/18 08:44:08;;;;;;;11.93;2.80;;;19.20;70.20;;;;;;5088339;28;20396;-61
2022/10/18 08:46:36;;;;;;;8.23;3.10;;;19.40;70.60;;;;;;5099589;28;20353;-60
2022/10/18 08:49:03;;;;;;;6.03;3.10;;;19.50;70.40;;;;;;5088470;28;20490;-60
2022/10/18 08:51:36;;;;;;;7.18;3.42;;;19.60;70.20;;;;;;5087913;28;20364;-60
2022/10/18 08:54:12;;;;;;;7.28;3.15;;;19.80;70.00;;;;;;5068996;28;20045;-61
2022/10/18 08:56:48;;;;;;;4.63;2.75;;;19.90;69.90;;;;;;5068038;28;20037;-61
2022/10/18 08:59:13;;;;;;;4.53;2.47;;;20.00;70.30;;;;;;5068674;28;20537;-61
2022/10/18 09:02:00;;;;;;;6.93;2.75;;;20.20;69.70;;;;;;5087191;28;20044;-61
2022/10/18 09:05:02;;;;;;;4.75;2.17;;;20.30;69.50;;;;;;5068550;28;20025;-60
2022/10/18 09:07:50;;;;;;;4.68;2.20;;;20.50;69.40;;;;;;5074391;28;20062;-61
2022/10/18 09:10:32;;;;;;;7.18;2.33;;;20.70;69.10;;;;;;5071602;28;20052;-61
2022/10/18 09:13:13;;;;;;;12.63;2.47;;;20.80;69.10;;;;;;5088347;28;20107;-61
2022/10/18 09:15:45;;;;;;;4.85;2.53;;;21.00;69.10;;;;;;5074571;28;20028;-59
2022/10/18 09:18:34;;;;;;;5.90;2.20;;;21.20;68.70;;;;;;5068611;28;20037;-61
2022/10/18 09:21:22;;;;;;;3.83;2.10;;;21.30;67.50;;;;;;5077529;28;20051;-60
2022/10/18 09:23:54;;;;;;;4.22;2.45;;;21.50;67.60;;;;;;5068428;28;20033;-61
2022/10/18 09:26:22;;;;;;;8.63;2.38;;;21.70;67.70;;;;;;5080137;28;20037;-61
2022/10/18 09:29:18;;;;;;;4.63;2.15;;;21.90;67.20;;;;;;5088092;28;20059;-61
2022/10/18 09:31:54;;;;;;;9.85;2.95;;;22.00;66.50;;;;;;5067974;28;20047;-61
2022/10/18 09:34:43;;;;;;;10.05;3.10;;;22.10;66.20;;;;;;5069792;28;20120;-60
2022/10/18 09:37:16;;;;;;;7.88;3.40;;;22.20;66.10;;;;;;5004303;28;20058;-59
2022/10/18 09:39:42;;;;;;;10.00;3.22;;;22.30;66.40;;;;;;4986804;28;20039;-60
2022/10/18 09:42:38;;;;;;;6.72;2.97;;;22.40;66.10;;;;;;4985624;28;20057;-61
2022/10/18 09:45:18;;;;;;;7.07;3.42;;;22.50;65.20;;;;;;4986131;28;20039;-59
2022/10/18 09:48:00;;;;;;;7.95;3.75;;;22.70;64.80;;;;;;4967523;29;20043;-62
2022/10/18 09:50:31;;;;;;;9.48;3.72;;;22.80;65.30;;;;;;4969972;28;20035;-61
2022/10/18 09:53:05;;;;;;;10.85;3.75;;;22.90;64.90;;;;;;4985777;28;20055;-61
2022/10/18 09:55:37;;;;;;;7.47;3.42;;;23.00;65.00;;;;;;4954958;28;20220;-60
2022/10/18 09:58:05;;;;;;;6.63;3.45;;;23.00;64.30;;;;;;4986671;28;20062;-61
2022/10/18 10:00:37;;;;;;;8.20;3.83;;;23.20;65.00;;;;;;4985400;28;20050;-61
2022/10/18 10:03:11;;;;;;;10.05;3.53;;;23.20;64.20;;;;;;4986034;28;20039;-62
2022/10/18 10:05:37;;;;;;;6.53;3.58;;;23.40;64.00;;;;;;4985553;28;20042;-61
2022/10/18 10:08:03;;;;;;;8.07;3.63;;;23.50;64.60;;;;;;4986289;28;20118;-60
2022/10/18 10:10:30;;;;;;;12.25;4.63;;;23.60;63.50;;;;;;4985292;28;20027;-60
2022/10/18 10:13:25;;;;;;;5.32;3.30;;;23.80;63.40;;;;;;4987314;28;20034;-62
2022/10/18 10:15:59;;;;;;;8.38;3.15;;;23.80;62.20;;;;;;5088116;28;20051;-60
2022/10/18 10:18:35;;;;;;;;;;;24.00;62.30;;;;;;5103110;28;20048;-61
2022/10/18 10:21:06;;;;;;;6.65;3.03;;;24.10;62.60;;;;;;5074434;28;19995;-60
2022/10/18 10:23:36;;;;;;;6.57;3.50;;;24.20;62.10;;;;;;5067413;28;20036;-61
2022/10/18 10:26:06;;;;;;;4.30;3.13;;;24.30;61.70;;;;;;5066421;28;20117;-60
2022/10/18 10:28:45;;;;;;;12.38;3.28;;;24.30;61.60;;;;;;5086943;28;20036;-60
2022/10/18 10:31:26;;;;;;;5.63;3.10;;;24.40;61.10;;;;;;5075545;28;20092;-62
2022/10/18 10:34:12;;;;;;;7.25;3.22;;;24.50;60.70;;;;;;5086768;28;20036;-61
2022/10/18 10:36:50;;;;;;;3.60;2.40;;;24.60;61.30;;;;;;5078923;28;20059;-60
2022/10/18 10:39:18;;;;;;;6.68;3.10;;;24.70;61.10;;;;;;5086799;28;20032;-61
2022/10/18 10:42:02;;;;;;;8.13;2.67;;;24.80;61.40;;;;;;5072400;28;20021;-61
2022/10/18 10:44:31;;;;;;;5.22;2.63;;;25.00;60.40;;;;;;5067026;28;20084;-62
2022/10/18 10:46:58;;;;;;;8.40;2.97;;;25.10;60.20;;;;;;5085216;28;20043;-59
2022/10/18 10:49:38;;;;;;;3.72;2.38;;;25.20;59.40;;;;;;4997739;28;20016;-60
2022/10/18 10:52:04;;;;;;;6.97;2.50;;;25.20;59.20;;;;;;5081798;28;20217;-60
2022/10/18 10:54:35;;;;;;;9.60;2.17;;;25.30;58.80;;;;;;5086763;28;20084;-61
2022/10/18 10:57:11;;;;;;;4.07;1.80;;;25.30;57.10;;;;;;5081772;28;20048;-61
2022/10/18 10:59:49;;;;;;;4.57;2.00;;;25.20;54.60;;;;;;5068529;28;20063;-60
2022/10/18 11:02:19;;;;;;;7.32;2.42;;;25.10;53.10;;;;;;5082968;28;20024;-60
2022/10/18 11:04:47;;;;;;;6.68;1.73;;;25.00;55.00;;;;;;5085334;28;20104;-59
2022/10/18 11:07:27;;;;;;;5.53;1.95;;;24.80;54.30;;;;;;5068408;28;20024;-60
2022/10/18 11:09:57;;;;;;;6.63;1.65;;;24.60;54.00;;;;;;5066153;28;20037;-61
2022/10/18 11:12:33;;;;;;;11.63;2.20;;;24.40;54.70;;;;;;5067298;28;20029;-61
2022/10/18 11:15:18;;;;;;;5.32;1.83;;;24.20;54.50;;;;;;5066129;28;20032;-61
2022/10/18 11:18:09;;;;;;;4.93;2.10;;;24.10;54.50;;;;;;5085249;28;20044;-60
2022/10/18 11:20:50;;;;;;;6.88;2.00;;;24.00;55.20;;;;;;5068288;28;20102;-60
2022/10/18 11:23:17;;;;;;;4.93;1.95;;;24.00;54.80;;;;;;5086154;28;20045;-61
2022/10/18 11:26:01;;;;;;;6.53;1.90;;;24.00;56.00;;;;;;5084743;28;20020;-60
2022/10/18 11:28:44;;;;;;;3.65;1.75;;;24.00;55.30;;;;;;5085820;28;20138;-60
2022/10/18 11:31:40;;;;;;;10.38;2.22;;;24.00;55.20;;;;;;5085171;28;20028;-60
2022/10/18 11:34:33;;;;;;;5.35;2.03;;;24.00;54.30;;;;;;5065916;28;20028;-62
2022/10/18 11:37:09;;;;;;;6.18;1.83;;;24.00;53.80;;;;;;5084205;28;20121;-61
2022/10/18 11:39:48;;;;;;;5.40;1.58;;;24.00;54.70;;;;;;5081108;28;20036;-61
2022/10/18 11:42:37;;;;;;;6.90;1.60;;;24.00;55.90;;;;;;5097574;28;20100;-60
2022/10/18 11:45:25;;;;;;;6.93;1.80;;;24.10;55.00;;;;;;5065690;28;20025;-62
2022/10/18 11:47:51;;;;;;;3.40;1.65;;;24.20;54.20;;;;;;5065875;28;20041;-60
2022/10/18 11:50:37;;;;;;;5.78;1.83;;;24.20;55.30;;;;;;5066476;28;20035;-61
2022/10/18 11:53:19;;;;;;;5.13;2.17;;;24.20;54.70;;;;;;5076988;28;20045;-60
2022/10/18 11:56:08;;;;;;;4.00;1.80;;;24.20;54.80;;;;;;5078512;28;20028;-63
2022/10/18 11:59:11;;;;;;;10.05;2.10;;;24.20;54.20;;;;;;5105693;28;20056;-63
2022/10/18 12:01:51;;;;;;;16.73;4.05;;;24.10;53.70;;;;;;5085145;28;20459;-61
2022/10/18 12:04:22;;;;;;;6.25;2.03;;;24.10;54.10;;;;;;5077698;28;20028;-61
2022/10/18 12:06:51;;;;;;;4.53;1.85;;;24.00;54.60;;;;;;5082251;28;20039;-62
2022/10/18 12:09:33;;;;;;;7.03;1.90;;;23.90;54.90;;;;;;5085593;28;20028;-61
2022/10/18 12:12:19;;;;;;;3.85;2.03;;;23.90;54.90;;;;;;5078001;28;20033;-61
2022/10/18 12:14:52;;;;;;;6.40;1.90;;;23.80;54.70;;;;;;5085475;28;20025;-62
2022/10/18 12:17:36;;;;;;;6.57;1.97;;;23.80;55.20;;;;;;5072873;28;20153;-61
2022/10/18 12:20:06;;;;;;;4.97;1.60;;;23.80;54.50;;;;;;5069542;28;20282;-62
2022/10/18 12:22:38;;;;;;;11.18;1.98;;;23.90;55.10;;;;;;5076819;28;20037;-60
2022/10/18 12:25:10;;;;;;;8.05;1.95;;;24.00;55.40;;;;;;5069814;28;20464;-62
2022/10/18 12:27:56;;;;;;;8.23;2.08;;;24.00;54.90;;;;;;5104846;28;20382;-63
2022/10/18 12:30:41;;;;;;;4.70;1.63;;;24.10;55.20;;;;;;5069641;28;20124;-61
2022/10/18 12:33:15;;;;;;;;;;;24.20;54.10;;;;;;5074093;28;20028;-63
2022/10/18 12:36:09;;;;;;;8.05;2.08;;;24.40;54.30;;;;;;5088031;28;19912;-61
2022/10/18 12:38:37;;;;;;;7.72;2.15;;;24.50;55.00;;;;;;5089296;28;20039;-61
2022/10/18 12:41:04;;;;;;;1.80;1.63;;;24.60;54.40;;;;;;5088197;28;20021;-61
2022/10/18 12:43:35;;;;;;;5.20;1.65;;;24.70;54.30;;;;;;5088949;28;20020;-60
2022/10/18 12:46:04;;;;;;;7.82;1.90;;;24.90;54.30;;;;;;5054482;28;20029;-61
2022/10/18 12:48:41;;;;;;;11.18;1.88;;;25.00;53.50;;;;;;5088749;28;20020;-63
2022/10/18 12:51:17;;;;;;;7.50;2.17;;;25.10;52.00;;;;;;5088269;28;20035;-62
2022/10/18 12:54:07;;;;;;;5.38;1.85;;;25.20;52.00;;;;;;5074465;28;20054;-62
2022/10/18 12:56:40;;;;;;;5.60;2.17;;;25.30;52.10;;;;;;5075920;28;20043;-61
2022/10/18 12:59:15;;;;;;;4.97;1.55;;;25.30;51.70;;;;;;5051073;28;20037;-61
2022/10/18 13:01:50;;;;;;;5.75;1.80;;;25.20;51.20;;;;;;5086990;28;20423;-61
2022/10/18 13:04:31;;;;;;;4.13;1.73;;;25.20;51.50;;;;;;5070474;28;20175;-60
2022/10/18 13:06:57;;;;;;;5.95;2.67;;;25.20;51.90;;;;;;5087619;28;20044;-60